Time;durP1;ratioP1;P1;durP2;ratioP2;P2;SDS_P1;SDS_P2;PMS_P1;PMS_P2;Temp;Humidity;BMP_temperature;BMP_pressure;BME280_temperature;BME280_humidity;BME280_pressure;Samples;Min_cycle;Max_cycle;Signal;HPM_P1;HPM_P2
2023/07/30 00:01:35;;;;;;;4.35;1.80;;;18.70;99.90;;;20.57;67.90;97177.03;5013210;28;20041;-50
2023/07/30 00:04:03;;;;;;;2.20;1.73;;;18.70;99.90;;;20.46;67.89;97183.25;5012685;28;20048;-48
2023/07/30 00:06:31;;;;;;;3.00;2.22;;;18.60;99.90;;;20.41;67.98;97185.81;5011807;28;20049;-52
2023/07/30 00:08:58;;;;;;;2.80;2.35;;;18.60;99.90;;;20.48;67.52;97178.44;5012038;28;20042;-49
2023/07/30 00:11:26;;;;;;;2.42;1.80;;;18.70;99.90;;;20.43;67.28;97162.94;5012807;28;20049;-50
2023/07/30 00:13:54;;;;;;;2.33;1.77;;;18.70;99.90;;;20.34;67.03;97164.34;5012028;28;20494;-48
2023/07/30 00:16:21;;;;;;;2.95;1.70;;;18.60;99.90;;;20.22;66.91;97174.31;5011980;28;20053;-48
2023/07/30 00:18:49;;;;;;;3.97;1.88;;;18.50;99.90;;;20.22;66.85;97183.25;5011143;28;20085;-45
2023/07/30 00:21:16;;;;;;;3.63;1.98;;;18.50;99.90;;;20.21;66.38;97199.69;5012516;28;20405;-48
2023/07/30 00:23:44;;;;;;;3.03;1.80;;;18.50;99.90;;;20.23;66.86;97197.56;5012527;28;20053;-48
2023/07/30 00:26:12;;;;;;;2.42;1.65;;;18.60;99.90;;;20.21;66.16;97202.41;5012743;28;20049;-50
2023/07/30 00:28:39;;;;;;;4.45;1.75;;;18.50;99.90;;;20.12;66.41;97193.78;5011839;28;20072;-49
2023/07/30 00:31:07;;;;;;;2.88;2.00;;;18.50;99.90;;;20.12;66.75;97188.38;5011268;28;20057;-50
2023/07/30 00:33:34;;;;;;;2.88;1.92;;;18.40;99.90;;;20.10;66.58;97187.81;5010580;28;20057;-53
2023/07/30 00:36:03;;;;;;;2.83;1.38;;;18.30;99.90;;;20.09;66.46;97202.38;5012089;28;20033;-50
2023/07/30 00:38:31;;;;;;;1.67;1.35;;;18.40;99.90;;;20.09;66.42;97209.69;5010652;28;20046;-51
2023/07/30 00:40:58;;;;;;;3.03;1.60;;;18.40;99.90;;;20.11;66.12;97218.38;5027877;28;20042;-49
2023/07/30 00:43:26;;;;;;;9.23;2.95;;;18.40;99.90;;;20.08;66.21;97214.22;5012033;28;20046;-49
2023/07/30 00:45:54;;;;;;;1.63;1.33;;;18.40;99.90;;;20.11;65.97;97216.50;5011151;28;20053;-47
2023/07/30 00:48:22;;;;;;;2.92;1.75;;;18.40;99.90;;;20.11;65.95;97216.50;5011817;28;20401;-49
2023/07/30 00:50:50;;;;;;;1.98;1.38;;;18.40;99.90;;;20.06;65.61;97222.59;5011598;28;20493;-47
2023/07/30 00:53:21;;;;;;;1.73;1.35;;;18.40;99.90;;;20.11;65.93;97227.28;5012037;28;20044;-50
2023/07/30 00:55:48;;;;;;;3.00;1.52;;;18.50;99.90;;;20.12;65.93;97220.81;4991781;28;20051;-51
2023/07/30 00:58:16;;;;;;;2.33;2.00;;;18.50;99.90;;;20.12;65.91;97223.53;5011332;28;20387;-51
2023/07/30 01:00:44;;;;;;;2.60;1.75;;;18.40;99.90;;;20.11;65.60;97229.19;4994626;28;20046;-48
2023/07/30 01:03:12;;;;;;;3.15;1.55;;;18.40;99.90;;;20.15;65.88;97233.06;5010626;28;20046;-51
2023/07/30 01:05:40;;;;;;;1.60;1.17;;;18.50;99.90;;;20.14;65.79;97232.25;5012027;28;20043;-49
2023/07/30 01:08:07;;;;;;;1.90;1.67;;;18.50;99.90;;;20.16;65.66;97238.25;5026683;28;20061;-49
2023/07/30 01:10:37;;;;;;;2.47;1.40;;;18.50;99.90;;;20.16;65.76;97229.28;5011025;28;20057;-49
2023/07/30 01:13:05;;;;;;;1.35;1.13;;;18.50;99.90;;;20.16;65.29;97232.84;5007652;28;20510;-47
2023/07/30 01:15:33;;;;;;;2.30;1.50;;;18.50;99.90;;;20.17;65.42;97241.75;5009327;28;20041;-47
2023/07/30 01:18:01;;;;;;;3.30;1.67;;;18.50;99.90;;;20.15;65.14;97239.28;4993738;28;20505;-52
2023/07/30 01:20:32;;;;;;;3.03;1.85;;;18.50;99.90;;;20.18;65.10;97240.69;5011646;28;20045;-50
2023/07/30 01:23:00;;;;;;;2.35;1.70;;;18.50;99.90;;;20.23;64.95;97235.41;4993891;28;20042;-51
2023/07/30 01:25:34;;;;;;;4.65;1.90;;;18.60;99.90;;;20.25;64.78;97236.00;5009484;28;20049;-49
2023/07/30 01:28:04;;;;;;;2.30;1.75;;;18.50;99.90;;;20.22;64.90;97241.88;5009352;28;20042;-49
2023/07/30 01:30:41;;;;;;;1.65;1.38;;;18.50;99.90;;;20.19;64.88;97240.47;4994456;28;20072;-51
2023/07/30 01:33:11;;;;;;;3.15;1.20;;;18.50;99.90;;;20.22;65.07;97245.41;5010950;28;20037;-47
2023/07/30 01:35:41;;;;;;;5.45;1.60;;;18.50;99.90;;;20.20;64.92;97236.72;4994135;28;20154;-51
2023/07/30 01:38:10;;;;;;;3.50;1.10;;;18.50;99.90;;;20.23;64.98;97243.53;4993395;28;20038;-47
2023/07/30 01:40:38;;;;;;;2.15;1.40;;;18.60;99.90;;;20.22;65.19;97242.72;5010356;28;20045;-50
2023/07/30 01:43:06;;;;;;;1.92;1.30;;;18.50;99.90;;;20.22;64.98;97245.41;4993423;28;20050;-52
2023/07/30 01:45:34;;;;;;;1.73;1.20;;;18.60;99.90;;;20.24;64.77;97247.88;4991090;28;20352;-50
2023/07/30 01:48:02;;;;;;;1.23;1.05;;;18.60;99.90;;;20.24;64.75;97240.59;5024505;28;20057;-49
2023/07/30 01:50:29;;;;;;;2.15;1.30;;;18.50;99.90;;;20.22;65.02;97240.00;5009862;28;20517;-52
2023/07/30 01:52:57;;;;;;;2.85;1.23;;;18.50;99.90;;;20.24;65.07;97243.28;5026353;28;20050;-50
2023/07/30 01:55:24;;;;;;;2.72;1.45;;;18.50;99.90;;;20.23;64.92;97248.94;5009801;28;20509;-50
2023/07/30 01:57:52;;;;;;;2.22;1.70;;;18.60;99.90;;;20.24;65.33;97248.69;5010971;28;20045;-47
2023/07/30 02:00:20;;;;;;;2.15;1.30;;;18.60;99.90;;;20.21;65.29;97248.34;5010230;28;20052;-47
2023/07/30 02:02:47;;;;;;;2.38;1.40;;;18.50;99.90;;;20.20;65.58;97241.28;5011315;28;20042;-48
2023/07/30 02:05:15;;;;;;;1.73;1.10;;;18.50;99.90;;;20.22;65.50;97241.88;5010277;28;20417;-48
2023/07/30 02:07:44;;;;;;;2.65;1.40;;;18.50;99.90;;;20.25;65.45;97238.72;5010291;28;20038;-47
2023/07/30 02:10:12;;;;;;;1.95;1.50;;;18.60;99.90;;;20.24;65.52;97234.38;5010744;28;20410;-49
2023/07/30 02:12:40;;;;;;;1.60;1.30;;;18.50;99.90;;;20.24;65.97;97229.78;5010208;28;20046;-51
2023/07/30 02:15:08;;;;;;;2.38;1.33;;;18.50;99.90;;;20.24;65.45;97229.78;5025332;28;20502;-48
2023/07/30 02:17:35;;;;;;;2.55;1.40;;;18.50;99.90;;;20.20;65.40;97225.91;5010659;28;20065;-49
2023/07/30 02:20:04;;;;;;;1.70;1.30;;;18.40;99.90;;;20.20;65.79;97230.47;5009932;28;20049;-49
2023/07/30 02:22:31;;;;;;;2.63;1.50;;;18.40;99.90;;;20.20;65.44;97235.88;5011050;28;20050;-53
2023/07/30 02:24:59;;;;;;;1.48;1.13;;;18.40;99.90;;;20.19;65.59;97239.66;5011001;28;20053;-48
2023/07/30 02:27:27;;;;;;;2.10;1.30;;;18.40;99.90;;;20.16;66.06;97240.09;5009590;28;20065;-50
2023/07/30 02:29:55;;;;;;;1.55;1.45;;;18.40;99.90;;;20.15;66.05;97241.16;5009265;28;20489;-48
2023/07/30 02:32:22;;;;;;;1.88;1.48;;;18.50;99.90;;;20.11;65.97;97240.00;5026444;28;20367;-51
2023/07/30 02:34:50;;;;;;;2.20;1.27;;;18.40;99.90;;;20.09;66.18;97240.22;5010949;28;20060;-51
2023/07/30 02:37:18;;;;;;;2.22;1.63;;;18.40;99.90;;;20.06;66.05;97235.25;5003886;28;20041;-48
2023/07/30 02:39:45;;;;;;;1.45;1.20;;;18.30;99.90;;;20.08;66.40;97243.13;5012952;28;20038;-49
2023/07/30 02:42:13;;;;;;;2.00;1.70;;;18.30;99.90;;;20.06;66.18;97249.63;5013025;28;20505;-52
2023/07/30 02:44:40;;;;;;;1.80;1.50;;;18.40;99.90;;;20.09;66.48;97250.22;5013565;28;20050;-52
2023/07/30 02:47:08;;;;;;;2.08;1.50;;;18.40;99.90;;;20.09;66.24;97252.91;5014150;28;20042;-49
2023/07/30 02:49:36;;;;;;;2.00;1.50;;;18.40;99.90;;;20.09;66.32;97253.72;5012750;28;20038;-52
2023/07/30 02:52:04;;;;;;;2.10;1.30;;;18.40;99.90;;;20.13;66.58;97248.69;5013359;28;20060;-50
2023/07/30 02:54:31;;;;;;;2.15;1.77;;;18.40;99.90;;;20.16;66.42;97253.59;4997386;28;20046;-51
2023/07/30 02:56:59;;;;;;;1.92;1.20;;;18.50;99.90;;;20.18;66.59;97254.19;5013809;28;20330;-48
2023/07/30 02:59:27;;;;;;;2.00;1.70;;;18.50;99.90;;;20.19;66.45;97256.69;5012845;28;20057;-49
2023/07/30 03:01:55;;;;;;;2.60;1.70;;;18.60;99.90;;;20.21;67.03;97259.97;5012800;28;20058;-48
2023/07/30 03:04:23;;;;;;;3.60;1.80;;;18.60;99.90;;;20.25;66.53;97263.84;5012979;28;20503;-47
2023/07/30 03:06:51;;;;;;;2.70;2.15;;;18.60;99.90;;;20.25;67.12;97268.44;5014246;28;20046;-49
2023/07/30 03:09:18;;;;;;;3.03;1.55;;;18.60;99.90;;;20.25;66.90;97265.72;5028851;28;20054;-49
2023/07/30 03:11:46;;;;;;;2.97;1.50;;;18.60;99.90;;;20.23;67.12;97251.63;5012873;28;20049;-49
2023/07/30 03:14:14;;;;;;;2.92;2.15;;;18.60;99.90;;;20.23;67.29;97252.44;5013728;28;20052;-53
2023/07/30 03:16:41;;;;;;;1.90;1.58;;;18.60;99.90;;;20.26;67.17;97251.19;5011767;28;20505;-48
2023/07/30 03:19:09;;;;;;;5.45;2.00;;;18.70;99.90;;;20.30;67.32;97254.22;5028327;28;20449;-50
2023/07/30 03:21:37;;;;;;;2.35;1.90;;;18.70;99.90;;;20.32;67.41;97257.53;5011751;28;20053;-47
2023/07/30 03:24:05;;;;;;;3.08;2.13;;;18.70;99.90;;;20.34;67.38;97252.72;5012787;28;20437;-49
2023/07/30 03:26:33;;;;;;;2.78;1.73;;;18.70;99.90;;;20.36;67.29;97253.31;5012531;28;20046;-51
2023/07/30 03:29:00;;;;;;;2.88;2.28;;;18.80;99.90;;;20.35;67.05;97252.47;4995637;28;20046;-52
2023/07/30 03:31:28;;;;;;;4.57;2.00;;;18.70;99.90;;;20.38;67.04;97253.91;5012826;28;20076;-49
2023/07/30 03:33:56;;;;;;;2.75;1.70;;;18.70;99.90;;;20.36;67.31;97258.72;5013427;28;20500;-50
2023/07/30 03:36:23;;;;;;;2.72;1.67;;;18.70;99.90;;;20.38;67.23;97262.00;5020964;28;20045;-48
2023/07/30 03:38:51;;;;;;;3.42;1.65;;;18.80;99.90;;;20.33;67.21;97270.78;5028666;28;20516;-48
2023/07/30 03:41:18;;;;;;;4.53;1.52;;;18.70;99.90;;;20.33;67.11;97269.97;5013568;28;20509;-49
2023/07/30 03:43:46;;;;;;;1.98;1.60;;;18.70;99.90;;;20.29;67.24;97271.50;5012572;28;20042;-49
2023/07/30 03:46:13;;;;;;;2.60;1.70;;;18.70;99.90;;;20.32;66.89;97269.16;5011672;28;20050;-51
2023/07/30 03:48:41;;;;;;;2.90;1.77;;;18.70;99.90;;;20.33;67.18;97284.31;5012483;28;20049;-50
2023/07/30 03:51:09;;;;;;;2.28;1.75;;;18.70;99.90;;;20.37;66.92;97290.09;5013004;28;20069;-48
2023/07/30 03:53:37;;;;;;;2.03;1.73;;;18.80;99.90;;;20.37;67.24;97293.59;5011809;28;20057;-50
2023/07/30 03:56:04;;;;;;;1.85;1.55;;;18.80;99.90;;;20.40;66.65;97286.94;4995508;28;20053;-49
2023/07/30 03:58:32;;;;;;;2.20;1.65;;;18.80;99.90;;;20.39;67.06;97288.78;5010938;28;20049;-49
2023/07/30 04:00:59;;;;;;;3.83;2.13;;;18.80;99.90;;;20.42;67.02;97301.84;5012946;28;20042;-47
2023/07/30 04:03:28;;;;;;;3.25;1.80;;;18.80;99.90;;;20.36;67.65;97300.06;5011669;28;20057;-48
2023/07/30 04:05:56;;;;;;;2.88;1.70;;;18.80;99.90;;;20.32;67.52;97292.69;5013160;28;20046;-50
2023/07/30 04:08:24;;;;;;;2.72;1.95;;;18.70;99.90;;;20.30;67.64;97290.19;5010506;28;20524;-49
2023/07/30 04:10:51;;;;;;;3.10;2.10;;;18.70;99.90;;;20.32;67.65;97296.19;5012932;28;20433;-47
2023/07/30 04:13:19;;;;;;;2.88;2.03;;;18.70;99.90;;;20.31;67.74;97289.13;5010912;28;20045;-51
2023/07/30 04:15:48;;;;;;;4.47;2.22;;;18.60;99.90;;;20.30;68.02;97284.78;5012156;28;20046;-48
2023/07/30 04:18:16;;;;;;;3.60;2.15;;;18.60;99.90;;;20.29;68.10;97285.03;5012597;28;20060;-50
2023/07/30 04:20:43;;;;;;;5.28;2.67;;;18.70;99.90;;;20.29;68.62;97291.25;5011690;28;20048;-54
2023/07/30 04:23:11;;;;;;;4.60;2.33;;;18.60;99.90;;;20.31;68.58;97283.72;5011427;28;20501;-49
2023/07/30 04:25:38;;;;;;;4.10;2.88;;;18.70;99.90;;;20.32;68.30;97293.50;5013010;28;20042;-47
2023/07/30 04:28:06;;;;;;;2.95;2.35;;;18.70;99.90;;;20.31;68.75;97305.34;5011770;28;20042;-51
2023/07/30 04:30:35;;;;;;;3.17;1.90;;;18.70;99.90;;;20.33;68.65;97302.41;5012741;28;20045;-53
2023/07/30 04:33:03;;;;;;;5.43;2.83;;;18.70;99.90;;;20.34;68.54;97304.06;5011583;28;20038;-48
2023/07/30 04:35:31;;;;;;;2.15;1.95;;;18.70;99.90;;;20.28;69.13;97308.53;5011529;28;20046;-51
2023/07/30 04:37:58;;;;;;;2.75;2.20;;;18.70;99.90;;;20.27;68.76;97301.47;5011848;28;20042;-52
2023/07/30 04:40:26;;;;;;;2.78;2.13;;;18.60;99.90;;;20.31;69.09;97318.84;5004634;28;20053;-52
2023/07/30 04:42:54;;;;;;;2.80;2.38;;;18.70;99.90;;;20.26;69.08;97311.47;5012170;28;20037;-48
2023/07/30 04:45:22;;;;;;;4.25;2.17;;;18.60;99.90;;;20.23;69.30;97320.00;5010907;28;20510;-49
2023/07/30 04:47:51;;;;;;;3.35;2.13;;;18.60;99.90;;;20.19;69.40;97318.84;5010463;28;20042;-48
2023/07/30 04:50:18;;;;;;;3.60;2.00;;;18.60;99.90;;;20.19;69.30;97329.66;5012414;28;20502;-52
2023/07/30 04:52:46;;;;;;;2.75;2.05;;;18.60;99.90;;;20.19;69.04;97326.94;5010754;28;20050;-49
2023/07/30 04:55:13;;;;;;;2.40;1.88;;;18.60;99.90;;;20.17;69.15;97320.94;5012232;28;20058;-49
2023/07/30 04:57:41;;;;;;;3.33;2.10;;;18.60;99.90;;;20.13;69.40;97340.56;5010497;28;20497;-49
2023/07/30 05:00:09;;;;;;;3.33;1.80;;;18.50;99.90;;;20.10;69.25;97339.13;5010708;28;20057;-47
2023/07/30 05:02:37;;;;;;;2.35;1.70;;;18.50;99.90;;;20.05;69.55;97333.59;5010426;28;20049;-49
2023/07/30 05:05:05;;;;;;;2.83;1.65;;;18.50;99.90;;;20.01;69.23;97341.34;5012042;28;20520;-48
2023/07/30 05:07:33;;;;;;;4.50;1.83;;;18.40;99.90;;;19.91;69.47;97340.22;5004269;28;20042;-50
2023/07/30 05:10:01;;;;;;;2.17;1.80;;;18.40;99.90;;;19.89;69.45;97350.44;5011756;28;20054;-49
2023/07/30 05:12:28;;;;;;;2.45;1.60;;;18.30;99.90;;;19.89;69.22;97355.84;5012310;28;20042;-48
2023/07/30 05:14:56;;;;;;;2.63;1.60;;;18.30;99.90;;;19.80;69.31;97358.03;5012119;28;20041;-51
2023/07/30 05:17:24;;;;;;;4.47;1.73;;;18.20;99.90;;;19.76;69.33;97360.38;5010672;28;20049;-49
2023/07/30 05:19:51;;;;;;;3.28;1.60;;;18.10;99.90;;;19.74;69.15;97361.66;5011729;28;20619;-47
2023/07/30 05:22:19;;;;;;;2.00;1.70;;;18.10;99.90;;;19.63;69.00;97364.00;5010340;28;20042;-50
2023/07/30 05:24:46;;;;;;;2.03;1.55;;;18.00;99.90;;;19.63;68.92;97355.91;5012074;28;20069;-49
2023/07/30 05:27:14;;;;;;;2.20;1.90;;;17.90;99.90;;;19.67;69.25;97350.88;5011487;28;20061;-49
2023/07/30 05:29:42;;;;;;;2.95;2.00;;;18.00;99.90;;;19.69;69.00;97332.56;5011489;28;20057;-49
2023/07/30 05:32:09;;;;;;;2.30;1.83;;;18.00;99.90;;;19.73;69.02;97338.38;5011658;28;20406;-49
2023/07/30 05:34:37;;;;;;;2.17;1.48;;;18.00;99.90;;;19.76;69.26;97336.06;5011914;28;20037;-50
2023/07/30 05:37:04;;;;;;;2.15;1.52;;;18.00;99.90;;;19.75;69.21;97331.69;5010059;28;20073;-48
2023/07/30 05:39:32;;;;;;;2.65;1.70;;;18.00;99.90;;;19.78;68.67;97331.25;5011313;28;20060;-51
2023/07/30 05:42:00;;;;;;;3.58;1.50;;;18.00;99.90;;;19.79;68.45;97329.38;5011651;28;20044;-51
2023/07/30 05:44:27;;;;;;;1.70;1.30;;;18.10;99.90;;;19.76;68.38;97329.84;5011459;28;20050;-48
2023/07/30 05:46:55;;;;;;;1.92;1.35;;;18.00;99.90;;;19.79;68.30;97340.16;5010201;28;20049;-52
2023/07/30 05:49:22;;;;;;;1.77;1.52;;;18.10;99.90;;;19.77;68.50;97342.28;5011141;28;20498;-51
2023/07/30 05:51:50;;;;;;;1.40;1.20;;;18.10;99.90;;;19.79;68.43;97340.16;5010177;28;20050;-50
2023/07/30 05:54:18;;;;;;;2.42;1.83;;;18.10;99.90;;;19.82;68.18;97342.44;5011556;28;20410;-51
2023/07/30 05:56:45;;;;;;;3.35;1.42;;;18.10;99.90;;;19.83;68.40;97341.34;5011623;28;20061;-49
2023/07/30 05:59:14;;;;;;;1.83;1.55;;;18.10;99.90;;;19.84;68.03;97343.03;5009728;28;20054;-49
2023/07/30 06:01:46;;;;;;;2.47;1.20;;;18.10;99.90;;;19.85;68.14;97323.91;5011360;28;20406;-49
2023/07/30 06:04:14;;;;;;;1.35;1.20;;;18.20;99.90;;;19.91;68.19;97330.25;5011322;28;20050;-51
2023/07/30 06:06:42;;;;;;;1.75;1.65;;;18.20;99.90;;;19.92;68.04;97321.09;5011276;28;20053;-49
2023/07/30 06:09:11;;;;;;;1.40;1.10;;;18.30;99.90;;;19.92;68.43;97312.97;5010894;28;20053;-53
2023/07/30 06:11:39;;;;;;;1.40;1.20;;;18.20;99.90;;;19.95;68.25;97322.50;5003349;28;20532;-49
2023/07/30 06:14:06;;;;;;;2.58;1.27;;;18.20;99.90;;;19.94;68.35;97337.91;5015241;28;20425;-49
2023/07/30 06:16:34;;;;;;;2.03;1.33;;;18.30;99.90;;;19.95;68.30;97339.56;5014302;28;20046;-52
2023/07/30 06:19:02;;;;;;;1.40;1.10;;;18.30;99.90;;;19.92;68.31;97331.91;5013789;28;20042;-52
2023/07/30 06:21:30;;;;;;;2.78;1.50;;;18.30;99.90;;;19.94;68.44;97342.47;5015030;28;20049;-53
2023/07/30 06:23:57;;;;;;;1.88;1.40;;;18.30;99.90;;;19.99;68.54;97339.94;5014866;28;20406;-48
2023/07/30 06:26:25;;;;;;;2.38;1.60;;;18.40;99.90;;;20.06;69.00;97337.94;5013622;28;20050;-48
2023/07/30 06:28:53;;;;;;;1.77;1.10;;;18.50;99.90;;;20.13;68.52;97340.56;5014604;28;20038;-49
2023/07/30 06:31:20;;;;;;;2.65;1.20;;;18.50;99.90;;;20.15;68.45;97344.69;5013763;28;20057;-50
2023/07/30 06:33:48;;;;;;;1.52;1.40;;;18.50;99.90;;;20.12;68.86;97334.31;5013575;28;20038;-52
2023/07/30 06:36:16;;;;;;;1.60;1.50;;;18.50;99.90;;;20.20;68.81;97349.38;5013581;28;20069;-51
2023/07/30 06:38:43;;;;;;;2.10;1.33;;;18.60;99.90;;;20.29;69.22;97350.72;5014150;28;20045;-50
2023/07/30 06:41:11;;;;;;;1.92;1.40;;;18.80;99.90;;;20.41;69.09;97356.16;5014506;28;20041;-51
2023/07/30 06:43:39;;;;;;;1.90;1.50;;;18.90;99.90;;;20.55;69.15;97351.34;5009764;28;20513;-49
2023/07/30 06:46:07;;;;;;;2.13;1.48;;;19.10;99.90;;;20.65;68.93;97363.28;5012578;28;20053;-52
2023/07/30 06:48:35;;;;;;;1.63;1.40;;;19.30;99.90;;;20.78;69.14;97369.53;5012622;28;20080;-51
2023/07/30 06:51:07;;;;;;;1.77;1.63;;;19.40;99.90;;;20.83;69.04;97373.19;5012606;28;20053;-51
2023/07/30 06:53:34;;;;;;;2.55;1.70;;;19.40;99.90;;;20.89;69.16;97381.44;5012406;28;20060;-51
2023/07/30 06:56:03;;;;;;;2.05;1.70;;;19.50;99.90;;;20.96;69.07;97379.44;5012374;28;20052;-52
2023/07/30 06:58:30;;;;;;;2.30;1.60;;;19.50;99.90;;;21.03;68.64;97389.09;5012774;28;20038;-52
2023/07/30 07:00:58;;;;;;;1.42;1.25;;;19.60;99.90;;;21.11;68.33;97396.06;5013602;28;20524;-52
2023/07/30 07:03:26;;;;;;;1.85;1.33;;;19.70;99.90;;;21.15;68.23;97397.22;5013411;28;20042;-53
2023/07/30 07:05:56;;;;;;;4.45;2.47;;;19.70;99.90;;;21.17;68.56;97396.97;5012969;28;20046;-51
2023/07/30 07:08:24;;;;;;;2.75;1.77;;;19.70;99.90;;;21.20;68.54;97404.63;5012336;28;20433;-51
2023/07/30 07:10:52;;;;;;;1.70;1.42;;;19.70;99.90;;;21.22;68.43;97408.75;5013371;28;20523;-50
2023/07/30 07:13:19;;;;;;;2.65;2.25;;;19.70;99.90;;;21.23;68.62;97406.88;5013243;28;20065;-47
2023/07/30 07:15:47;;;;;;;2.70;2.00;;;19.70;99.90;;;21.19;67.97;97409.22;5012095;28;20042;-49
2023/07/30 07:18:15;;;;;;;2.88;1.67;;;19.70;99.90;;;21.21;68.21;97417.94;5012865;28;20046;-50
2023/07/30 07:20:42;;;;;;;5.20;2.38;;;19.70;99.90;;;21.03;67.54;97412.63;5004885;28;20038;-52
2023/07/30 07:23:10;;;;;;;1.85;1.55;;;19.50;99.90;;;20.97;68.18;97416.25;5012968;28;20053;-53
2023/07/30 07:25:40;;;;;;;2.15;1.88;;;19.40;99.90;;;20.90;67.83;97431.78;5013349;28;20049;-49
2023/07/30 07:28:08;;;;;;;3.13;2.05;;;19.30;99.90;;;20.84;68.54;97430.84;5013444;28;20065;-48
2023/07/30 07:30:38;;;;;;;4.10;2.38;;;19.20;99.90;;;20.72;68.82;97428.09;5012896;28;20049;-53
2023/07/30 07:33:06;;;;;;;3.58;1.73;;;19.20;99.90;;;20.56;68.67;97428.72;5012969;28;20050;-51
2023/07/30 07:35:34;;;;;;;3.15;2.13;;;19.00;99.90;;;20.45;69.33;97427.63;5010465;28;20073;-48
2023/07/30 07:38:02;;;;;;;4.00;2.08;;;18.80;99.90;;;20.43;69.41;97422.47;5012098;28;20045;-48
2023/07/30 07:40:29;;;;;;;2.92;2.03;;;18.80;99.90;;;20.39;69.45;97426.66;5012730;28;20046;-48
2023/07/30 07:42:57;;;;;;;2.75;2.20;;;18.80;99.90;;;20.40;69.75;97435.63;5012525;28;20049;-49
2023/07/30 07:45:24;;;;;;;2.53;2.08;;;18.80;99.90;;;20.40;69.80;97435.63;5012452;28;20258;-50
2023/07/30 07:47:53;;;;;;;2.13;1.70;;;18.80;99.90;;;20.39;69.34;97428.53;5010342;28;20046;-48
2023/07/30 07:50:20;;;;;;;2.30;1.85;;;18.90;99.90;;;20.45;69.27;97425.75;5011554;28;20064;-53
2023/07/30 07:52:48;;;;;;;3.60;1.98;;;18.90;99.90;;;20.48;69.42;97424.47;5012489;28;20049;-52
2023/07/30 07:55:17;;;;;;;3.63;2.22;;;19.00;99.90;;;20.55;69.13;97421.66;5012225;28;20054;-47
2023/07/30 07:57:44;;;;;;;2.45;1.73;;;19.00;99.90;;;20.56;69.21;97421.44;5009841;28;20048;-50
2023/07/30 08:00:12;;;;;;;2.50;2.17;;;19.00;99.90;;;20.63;69.04;97422.19;5012068;28;20042;-47
2023/07/30 08:02:41;;;;;;;5.85;2.30;;;19.10;99.90;;;20.63;68.65;97421.38;5011024;28;20073;-52
2023/07/30 08:05:09;;;;;;;3.63;2.42;;;19.10;99.90;;;20.62;68.83;97430.53;5012100;28;20057;-49
2023/07/30 08:07:36;;;;;;;2.60;2.30;;;19.10;99.90;;;20.67;68.50;97430.69;5011464;28;20414;-51
2023/07/30 08:10:05;;;;;;;3.38;2.20;;;19.20;99.90;;;20.69;68.33;97433.16;5012107;28;20046;-53
2023/07/30 08:12:33;;;;;;;3.17;2.03;;;19.20;99.90;;;20.71;68.21;97436.47;5012009;28;20046;-48
2023/07/30 08:15:00;;;;;;;3.50;2.00;;;19.20;99.90;;;20.77;68.22;97432.81;5011337;28;20049;-48
2023/07/30 08:17:29;;;;;;;2.80;2.20;;;19.30;99.90;;;20.87;68.42;97433.06;5011514;28;20486;-52
2023/07/30 08:19:56;;;;;;;3.05;1.90;;;19.40;99.90;;;20.84;67.91;97431.66;5009985;28;20064;-52
2023/07/30 08:22:24;;;;;;;2.35;1.83;;;19.50;99.90;;;20.89;68.05;97430.94;5013169;28;20046;-51
2023/07/30 08:24:51;;;;;;;3.30;2.63;;;19.50;99.90;;;21.02;68.03;97435.34;5012756;28;20042;-50
2023/07/30 08:27:19;;;;;;;3.13;2.00;;;19.70;99.90;;;21.02;68.00;97432.63;5012442;28;20801;-50
2023/07/30 08:29:46;;;;;;;2.40;2.20;;;19.80;99.90;;;21.17;67.88;97422.19;5012426;28;20049;-51
2023/07/30 08:32:14;;;;;;;5.10;2.50;;;19.90;99.90;;;21.11;67.82;97419.56;5011982;28;20057;-49
2023/07/30 08:34:42;;;;;;;3.00;2.10;;;19.80;99.90;;;21.07;67.82;97429.22;5012348;28;20045;-49
2023/07/30 08:37:09;;;;;;;3.10;2.72;;;19.70;99.90;;;21.09;67.40;97419.78;5012346;28;20046;-49
2023/07/30 08:39:37;;;;;;;3.70;1.88;;;19.70;99.90;;;21.15;67.35;97418.03;5010997;28;20049;-49
2023/07/30 08:42:05;;;;;;;2.75;1.95;;;19.80;99.90;;;21.07;66.68;97423.81;5012566;28;20038;-52
2023/07/30 08:44:32;;;;;;;2.45;2.25;;;19.70;99.90;;;20.91;66.91;97418.00;5012372;28;20042;-51
2023/07/30 08:47:00;;;;;;;2.50;1.95;;;19.70;99.90;;;21.11;66.96;97423.13;5012459;28;20509;-52
2023/07/30 08:49:32;;;;;;;2.97;1.92;;;19.80;99.90;;;21.17;66.96;97432.16;5010867;28;20046;-53
2023/07/30 08:52:02;;;;;;;4.80;1.80;;;19.90;99.90;;;21.24;66.17;97435.59;5012451;28;20045;-52
2023/07/30 08:54:31;;;;;;;2.75;1.92;;;20.00;99.90;;;21.27;64.89;97440.53;5011063;28;20050;-49
2023/07/30 08:56:59;;;;;;;2.90;2.03;;;20.00;99.90;;;21.38;64.22;97433.47;5011944;28;20049;-50
2023/07/30 08:59:33;;;;;;;5.25;2.10;;;20.10;99.90;;;21.36;64.23;97432.88;5006731;28;20041;-52
2023/07/30 09:02:01;;;;;;;4.45;2.22;;;20.10;99.90;;;21.30;64.13;97448.19;4992481;28;20497;-53
2023/07/30 09:04:30;;;;;;;3.10;1.90;;;20.00;99.90;;;;;;5011682;28;20462;-51
2023/07/30 09:07:00;;;;;;;3.83;2.17;;;20.10;99.90;;;21.46;63.24;97445.84;5010160;28;20053;-51
2023/07/30 09:09:28;;;;;;;2.42;2.13;;;20.20;99.90;;;21.42;63.60;97453.59;5009664;28;20042;-50
2023/07/30 09:11:56;;;;;;;4.05;2.58;;;20.10;99.90;;;21.46;63.24;97456.69;4996150;28;20622;-52
2023/07/30 09:14:26;;;;;;;2.22;1.95;;;20.10;99.90;;;21.42;62.98;97446.31;5003633;28;20440;-50
2023/07/30 09:16:58;;;;;;;3.70;2.22;;;20.10;99.90;;;21.41;63.30;97449.25;5005157;28;20046;-52
2023/07/30 09:19:25;;;;;;;2.97;2.10;;;20.10;99.90;;;21.51;62.62;97451.41;5001997;28;20045;-52
2023/07/30 09:21:53;;;;;;;2.65;2.25;;;20.20;99.90;;;21.53;62.53;97441.97;5004986;28;20042;-53
2023/07/30 09:24:22;;;;;;;3.20;2.65;;;20.20;99.90;;;21.38;62.75;97452.41;5005684;28;20042;-48
2023/07/30 09:26:49;;;;;;;2.75;1.88;;;20.10;99.90;;;21.19;61.60;97452.53;5005843;28;20049;-49
2023/07/30 09:29:17;;;;;;;3.15;2.17;;;20.00;99.90;;;;;;5005372;28;20072;-49
2023/07/30 09:31:55;;;;;;;3.30;2.28;;;20.10;99.90;;;21.24;61.49;97458.06;5005627;28;20426;-53
2023/07/30 09:34:25;;;;;;;3.97;2.28;;;20.20;99.90;;;21.21;62.09;97455.84;5003779;28;20060;-51
2023/07/30 09:36:54;;;;;;;3.20;2.42;;;20.10;99.90;;;21.31;61.46;97462.56;5005383;28;20421;-49
2023/07/30 09:39:24;;;;;;;2.80;2.10;;;20.20;99.90;;;21.30;61.34;97461.72;5004462;28;20045;-52
2023/07/30 09:41:58;;;;;;;3.88;2.20;;;20.20;99.90;;;21.45;61.17;97457.75;5005034;28;20061;-53
2023/07/30 09:44:27;;;;;;;5.65;2.92;;;20.30;99.90;;;21.61;60.63;97463.28;5003911;28;20053;-55
2023/07/30 09:46:54;;;;;;;3.33;2.25;;;20.50;99.90;;;21.52;61.56;97459.28;5002362;28;20049;-53
2023/07/30 09:49:22;;;;;;;3.75;2.00;;;20.50;99.90;;;21.65;61.48;97462.81;5005751;28;20053;-54
2023/07/30 09:51:54;;;;;;;2.92;2.13;;;20.60;99.90;;;21.62;60.41;97467.66;5006090;28;20042;-51
2023/07/30 09:54:22;;;;;;;3.00;2.50;;;20.70;99.20;;;21.90;60.11;97478.81;5003064;28;20053;-53
2023/07/30 09:56:50;;;;;;;4.93;2.40;;;21.00;99.10;;;21.96;59.59;97475.94;5005765;28;20046;-54
2023/07/30 09:59:17;;;;;;;3.40;2.63;;;21.10;96.80;;;22.02;57.92;97474.19;5001799;28;20055;-47
2023/07/30 10:01:49;;;;;;;3.95;2.25;;;21.00;91.10;;;22.06;57.46;97469.94;5004948;28;20046;-46
2023/07/30 10:04:20;;;;;;;3.85;2.22;;;21.00;91.00;;;21.98;56.91;97471.16;5003442;28;20053;-47
2023/07/30 10:07:04;;;;;;;4.78;2.63;;;20.90;89.00;;;21.82;54.95;97475.38;5005247;28;20049;-48
2023/07/30 10:09:43;;;;;;;2.92;2.28;;;20.80;84.70;;;21.65;54.81;97482.59;5001976;28;20046;-48
2023/07/30 10:12:17;;;;;;;2.53;2.20;;;20.80;85.20;;;21.82;54.67;97478.09;5002368;28;20049;-49
2023/07/30 10:14:46;;;;;;;2.60;2.20;;;20.70;85.00;;;21.83;55.22;97477.06;5000630;28;20506;-46
2023/07/30 10:17:16;;;;;;;3.17;2.10;;;20.90;88.00;;;21.94;55.83;97488.91;5003103;28;20217;-48
2023/07/30 10:19:48;;;;;;;2.92;2.42;;;21.00;88.60;;;22.03;54.87;97479.38;5002726;28;20038;-49
2023/07/30 10:22:22;;;;;;;2.85;2.40;;;21.10;84.30;;;22.05;55.01;97479.13;5005820;28;20069;-47
2023/07/30 10:25:00;;;;;;;;;;;21.10;84.90;;;22.13;54.67;97472.50;5009401;28;20053;-48